sensor_id;sensor_type;location;lat;lon;timestamp;P1;durP1;ratioP1;P2;durP2;ratioP2
77158;SDS011;66129;45.890;13.714;2023-08-17T00:02:25;15.52;;;11.88;;
77158;SDS011;66129;45.890;13.714;2023-08-17T00:04:50;12.90;;;10.88;;
77158;SDS011;66129;45.890;13.714;2023-08-17T00:07:16;15.02;;;12.23;;
77158;SDS011;66129;45.890;13.714;2023-08-17T00:09:41;13.65;;;12.25;;
77158;SDS011;66129;45.890;13.714;2023-08-17T00:12:08;14.48;;;12.95;;
77158;SDS011;66129;45.890;13.714;2023-08-17T00:14:33;13.88;;;12.43;;
77158;SDS011;66129;45.890;13.714;2023-08-17T00:16:59;16.23;;;12.35;;
77158;SDS011;66129;45.890;13.714;2023-08-17T00:19:24;13.85;;;12.35;;
77158;SDS011;66129;45.890;13.714;2023-08-17T00:21:50;15.85;;;11.90;;
77158;SDS011;66129;45.890;13.714;2023-08-17T00:24:16;13.85;;;11.48;;
77158;SDS011;66129;45.890;13.714;2023-08-17T00:26:42;14.45;;;12.05;;
77158;SDS011;66129;45.890;13.714;2023-08-17T00:29:07;15.07;;;12.00;;
77158;SDS011;66129;45.890;13.714;2023-08-17T00:31:33;13.40;;;11.38;;
77158;SDS011;66129;45.890;13.714;2023-08-17T00:33:59;13.68;;;11.88;;
77158;SDS011;66129;45.890;13.714;2023-08-17T00:36:24;13.48;;;12.07;;
77158;SDS011;66129;45.890;13.714;2023-08-17T00:38:49;13.70;;;11.85;;
77158;SDS011;66129;45.890;13.714;2023-08-17T00:41:15;13.82;;;12.27;;
77158;SDS011;66129;45.890;13.714;2023-08-17T00:43:40;13.90;;;11.38;;
77158;SDS011;66129;45.890;13.714;2023-08-17T00:46:06;15.23;;;12.13;;
77158;SDS011;66129;45.890;13.714;2023-08-17T00:48:32;14.02;;;11.50;;
77158;SDS011;66129;45.890;13.714;2023-08-17T00:50:58;16.38;;;12.20;;
77158;SDS011;66129;45.890;13.714;2023-08-17T00:53:29;15.98;;;12.32;;
77158;SDS011;66129;45.890;13.714;2023-08-17T00:55:57;15.27;;;12.80;;
77158;SDS011;66129;45.890;13.714;2023-08-17T00:58:23;15.20;;;11.95;;
77158;SDS011;66129;45.890;13.714;2023-08-17T01:00:50;18.27;;;12.55;;
77158;SDS011;66129;45.890;13.714;2023-08-17T01:03:16;17.85;;;13.32;;
77158;SDS011;66129;45.890;13.714;2023-08-17T01:05:43;14.40;;;12.25;;
77158;SDS011;66129;45.890;13.714;2023-08-17T01:08:08;14.73;;;12.73;;
77158;SDS011;66129;45.890;13.714;2023-08-17T01:10:37;18.52;;;12.77;;
77158;SDS011;66129;45.890;13.714;2023-08-17T01:13:18;19.02;;;13.57;;
77158;SDS011;66129;45.890;13.714;2023-08-17T01:15:52;14.38;;;12.88;;
77158;SDS011;66129;45.890;13.714;2023-08-17T01:18:35;14.90;;;12.25;;
77158;SDS011;66129;45.890;13.714;2023-08-17T01:21:02;15.40;;;13.05;;
77158;SDS011;66129;45.890;13.714;2023-08-17T01:23:31;18.63;;;13.68;;
77158;SDS011;66129;45.890;13.714;2023-08-17T01:25:57;17.30;;;12.18;;
77158;SDS011;66129;45.890;13.714;2023-08-17T01:28:23;13.35;;;11.95;;
77158;SDS011;66129;45.890;13.714;2023-08-17T01:33:44;17.73;;;13.57;;
77158;SDS011;66129;45.890;13.714;2023-08-17T01:36:20;15.82;;;13.43;;
77158;SDS011;66129;45.890;13.714;2023-08-17T01:38:51;18.33;;;13.95;;
77158;SDS011;66129;45.890;13.714;2023-08-17T01:41:17;17.45;;;13.95;;
77158;SDS011;66129;45.890;13.714;2023-08-17T01:43:45;16.52;;;13.07;;
77158;SDS011;66129;45.890;13.714;2023-08-17T01:46:13;15.55;;;13.15;;
77158;SDS011;66129;45.890;13.714;2023-08-17T01:48:42;15.13;;;11.93;;
77158;SDS011;66129;45.890;13.714;2023-08-17T01:51:15;21.67;;;13.10;;
77158;SDS011;66129;45.890;13.714;2023-08-17T01:53:43;17.60;;;13.85;;
77158;SDS011;66129;45.890;13.714;2023-08-17T01:56:09;14.70;;;12.90;;
77158;SDS011;66129;45.890;13.714;2023-08-17T01:58:34;20.40;;;14.30;;
77158;SDS011;66129;45.890;13.714;2023-08-17T02:01:00;16.55;;;12.57;;
77158;SDS011;66129;45.890;13.714;2023-08-17T02:03:26;16.42;;;12.82;;
77158;SDS011;66129;45.890;13.714;2023-08-17T02:05:55;15.90;;;13.80;;
77158;SDS011;66129;45.890;13.714;2023-08-17T02:08:21;16.15;;;13.10;;
77158;SDS011;66129;45.890;13.714;2023-08-17T02:10:46;18.00;;;13.57;;
77158;SDS011;66129;45.890;13.714;2023-08-17T02:13:12;18.75;;;14.35;;
77158;SDS011;66129;45.890;13.714;2023-08-17T02:15:38;17.52;;;13.63;;
77158;SDS011;66129;45.890;13.714;2023-08-17T02:18:05;16.40;;;13.63;;
77158;SDS011;66129;45.890;13.714;2023-08-17T02:20:30;17.23;;;14.07;;
77158;SDS011;66129;45.890;13.714;2023-08-17T02:22:56;14.52;;;12.70;;
77158;SDS011;66129;45.890;13.714;2023-08-17T02:25:21;17.63;;;14.45;;
77158;SDS011;66129;45.890;13.714;2023-08-17T02:27:47;17.25;;;13.65;;
77158;SDS011;66129;45.890;13.714;2023-08-17T02:30:12;15.95;;;13.85;;
77158;SDS011;66129;45.890;13.714;2023-08-17T02:32:38;16.65;;;14.95;;
77158;SDS011;66129;45.890;13.714;2023-08-17T02:35:04;17.98;;;13.45;;
77158;SDS011;66129;45.890;13.714;2023-08-17T02:37:30;16.85;;;14.20;;
77158;SDS011;66129;45.890;13.714;2023-08-17T02:39:56;18.83;;;13.68;;
77158;SDS011;66129;45.890;13.714;2023-08-17T02:42:22;15.85;;;13.68;;
77158;SDS011;66129;45.890;13.714;2023-08-17T02:44:47;15.60;;;13.35;;
77158;SDS011;66129;45.890;13.714;2023-08-17T02:47:13;15.05;;;13.40;;
77158;SDS011;66129;45.890;13.714;2023-08-17T02:49:38;17.73;;;13.65;;
77158;SDS011;66129;45.890;13.714;2023-08-17T02:52:04;17.67;;;13.55;;
77158;SDS011;66129;45.890;13.714;2023-08-17T02:54:30;17.90;;;14.55;;
77158;SDS011;66129;45.890;13.714;2023-08-17T02:56:56;16.38;;;14.68;;
77158;SDS011;66129;45.890;13.714;2023-08-17T02:59:22;14.27;;;12.85;;
77158;SDS011;66129;45.890;13.714;2023-08-17T03:01:47;16.13;;;12.27;;
77158;SDS011;66129;45.890;13.714;2023-08-17T03:04:13;15.52;;;13.00;;
77158;SDS011;66129;45.890;13.714;2023-08-17T03:06:39;18.33;;;14.02;;
77158;SDS011;66129;45.890;13.714;2023-08-17T03:09:04;17.45;;;12.85;;
77158;SDS011;66129;45.890;13.714;2023-08-17T03:11:30;16.40;;;13.57;;
77158;SDS011;66129;45.890;13.714;2023-08-17T03:13:55;17.05;;;14.13;;
77158;SDS011;66129;45.890;13.714;2023-08-17T03:16:25;16.65;;;13.95;;
77158;SDS011;66129;45.890;13.714;2023-08-17T03:18:52;15.05;;;12.77;;
77158;SDS011;66129;45.890;13.714;2023-08-17T03:21:17;17.25;;;13.57;;
77158;SDS011;66129;45.890;13.714;2023-08-17T03:23:43;15.65;;;12.70;;
77158;SDS011;66129;45.890;13.714;2023-08-17T03:26:09;18.58;;;14.30;;
77158;SDS011;66129;45.890;13.714;2023-08-17T03:28:35;17.08;;;13.60;;
77158;SDS011;66129;45.890;13.714;2023-08-17T03:31:01;14.25;;;12.57;;
77158;SDS011;66129;45.890;13.714;2023-08-17T03:33:28;17.38;;;12.93;;
77158;SDS011;66129;45.890;13.714;2023-08-17T03:35:53;15.35;;;13.75;;
77158;SDS011;66129;45.890;13.714;2023-08-17T03:38:19;16.55;;;13.50;;
77158;SDS011;66129;45.890;13.714;2023-08-17T03:40:44;14.65;;;12.63;;
77158;SDS011;66129;45.890;13.714;2023-08-17T03:43:11;14.63;;;12.20;;
77158;SDS011;66129;45.890;13.714;2023-08-17T03:45:37;14.30;;;12.82;;
77158;SDS011;66129;45.890;13.714;2023-08-17T03:48:03;15.57;;;13.40;;
77158;SDS011;66129;45.890;13.714;2023-08-17T03:50:29;18.27;;;13.18;;
77158;SDS011;66129;45.890;13.714;2023-08-17T03:52:54;23.13;;;13.98;;
77158;SDS011;66129;45.890;13.714;2023-08-17T03:55:20;16.02;;;14.10;;
77158;SDS011;66129;45.890;13.714;2023-08-17T03:57:45;17.40;;;14.52;;
77158;SDS011;66129;45.890;13.714;2023-08-17T04:00:11;17.30;;;13.45;;
77158;SDS011;66129;45.890;13.714;2023-08-17T04:02:37;16.58;;;13.90;;
77158;SDS011;66129;45.890;13.714;2023-08-17T04:05:02;16.08;;;13.43;;
77158;SDS011;66129;45.890;13.714;2023-08-17T04:07:28;17.80;;;12.30;;
77158;SDS011;66129;45.890;13.714;2023-08-17T04:09:54;18.88;;;15.15;;
77158;SDS011;66129;45.890;13.714;2023-08-17T04:12:19;14.82;;;13.30;;
77158;SDS011;66129;45.890;13.714;2023-08-17T04:14:45;15.52;;;13.13;;
77158;SDS011;66129;45.890;13.714;2023-08-17T04:17:11;16.40;;;13.32;;
77158;SDS011;66129;45.890;13.714;2023-08-17T04:19:36;17.60;;;13.40;;
77158;SDS011;66129;45.890;13.714;2023-08-17T04:22:02;16.10;;;13.02;;
77158;SDS011;66129;45.890;13.714;2023-08-17T04:24:28;15.63;;;12.50;;
77158;SDS011;66129;45.890;13.714;2023-08-17T04:26:53;16.02;;;12.70;;
77158;SDS011;66129;45.890;13.714;2023-08-17T04:29:19;15.38;;;12.23;;
77158;SDS011;66129;45.890;13.714;2023-08-17T04:31:44;13.25;;;11.75;;
77158;SDS011;66129;45.890;13.714;2023-08-17T04:34:10;15.30;;;12.35;;
77158;SDS011;66129;45.890;13.714;2023-08-17T04:36:36;14.85;;;12.32;;
77158;SDS011;66129;45.890;13.714;2023-08-17T04:39:02;16.38;;;12.60;;
77158;SDS011;66129;45.890;13.714;2023-08-17T04:41:29;16.27;;;12.57;;
77158;SDS011;66129;45.890;13.714;2023-08-17T04:43:55;15.18;;;13.18;;
77158;SDS011;66129;45.890;13.714;2023-08-17T04:46:21;14.68;;;12.75;;
77158;SDS011;66129;45.890;13.714;2023-08-17T04:48:47;14.10;;;12.60;;
77158;SDS011;66129;45.890;13.714;2023-08-17T04:51:12;13.90;;;12.15;;
77158;SDS011;66129;45.890;13.714;2023-08-17T04:53:38;14.65;;;11.30;;
77158;SDS011;66129;45.890;13.714;2023-08-17T04:56:04;15.52;;;10.68;;
77158;SDS011;66129;45.890;13.714;2023-08-17T04:58:29;12.55;;;10.82;;
77158;SDS011;66129;45.890;13.714;2023-08-17T05:00:55;12.43;;;10.07;;
77158;SDS011;66129;45.890;13.714;2023-08-17T05:03:20;14.10;;;11.60;;
77158;SDS011;66129;45.890;13.714;2023-08-17T05:05:46;16.60;;;11.00;;
77158;SDS011;66129;45.890;13.714;2023-08-17T05:08:11;15.98;;;10.95;;
77158;SDS011;66129;45.890;13.714;2023-08-17T05:10:37;12.10;;;9.88;;
77158;SDS011;66129;45.890;13.714;2023-08-17T05:13:02;11.70;;;9.88;;
77158;SDS011;66129;45.890;13.714;2023-08-17T05:15:28;10.48;;;9.48;;
77158;SDS011;66129;45.890;13.714;2023-08-17T05:17:55;11.52;;;10.02;;
77158;SDS011;66129;45.890;13.714;2023-08-17T05:20:21;13.10;;;10.50;;
77158;SDS011;66129;45.890;13.714;2023-08-17T05:22:47;12.27;;;10.27;;
77158;SDS011;66129;45.890;13.714;2023-08-17T05:25:13;12.50;;;9.07;;
77158;SDS011;66129;45.890;13.714;2023-08-17T05:27:38;10.95;;;9.10;;
77158;SDS011;66129;45.890;13.714;2023-08-17T05:30:04;12.63;;;8.95;;
77158;SDS011;66129;45.890;13.714;2023-08-17T05:32:30;11.10;;;8.80;;
77158;SDS011;66129;45.890;13.714;2023-08-17T05:34:56;12.02;;;8.95;;
77158;SDS011;66129;45.890;13.714;2023-08-17T05:37:22;12.77;;;8.13;;
77158;SDS011;66129;45.890;13.714;2023-08-17T05:39:47;10.88;;;8.45;;
77158;SDS011;66129;45.890;13.714;2023-08-17T05:42:13;10.25;;;8.35;;
77158;SDS011;66129;45.890;13.714;2023-08-17T05:44:38;10.30;;;8.73;;
77158;SDS011;66129;45.890;13.714;2023-08-17T05:47:04;9.15;;;8.10;;
77158;SDS011;66129;45.890;13.714;2023-08-17T05:49:29;10.82;;;8.40;;
77158;SDS011;66129;45.890;13.714;2023-08-17T05:51:55;9.35;;;7.80;;
77158;SDS011;66129;45.890;13.714;2023-08-17T05:54:20;9.18;;;8.27;;
77158;SDS011;66129;45.890;13.714;2023-08-17T05:56:46;9.30;;;8.38;;
77158;SDS011;66129;45.890;13.714;2023-08-17T05:59:12;9.95;;;7.60;;
77158;SDS011;66129;45.890;13.714;2023-08-17T06:01:38;10.75;;;8.00;;
77158;SDS011;66129;45.890;13.714;2023-08-17T06:04:05;11.48;;;7.93;;
77158;SDS011;66129;45.890;13.714;2023-08-17T06:06:31;9.88;;;7.45;;
77158;SDS011;66129;45.890;13.714;2023-08-17T06:08:56;9.93;;;8.05;;
77158;SDS011;66129;45.890;13.714;2023-08-17T06:11:21;9.90;;;8.85;;
77158;SDS011;66129;45.890;13.714;2023-08-17T06:13:48;9.82;;;8.60;;
77158;SDS011;66129;45.890;13.714;2023-08-17T06:16:13;9.77;;;7.88;;
77158;SDS011;66129;45.890;13.714;2023-08-17T06:18:39;10.98;;;7.70;;
77158;SDS011;66129;45.890;13.714;2023-08-17T06:21:04;8.43;;;7.53;;
77158;SDS011;66129;45.890;13.714;2023-08-17T06:23:30;10.27;;;8.02;;
77158;SDS011;66129;45.890;13.714;2023-08-17T06:25:56;12.57;;;7.95;;
77158;SDS011;66129;45.890;13.714;2023-08-17T06:28:25;11.60;;;7.75;;
77158;SDS011;66129;45.890;13.714;2023-08-17T06:30:52;11.65;;;8.00;;
77158;SDS011;66129;45.890;13.714;2023-08-17T06:33:18;11.13;;;7.40;;
77158;SDS011;66129;45.890;13.714;2023-08-17T06:35:44;9.98;;;7.40;;
77158;SDS011;66129;45.890;13.714;2023-08-17T06:38:09;8.35;;;7.45;;
77158;SDS011;66129;45.890;13.714;2023-08-17T06:40:35;8.82;;;6.93;;
77158;SDS011;66129;45.890;13.714;2023-08-17T06:43:00;8.27;;;7.15;;
77158;SDS011;66129;45.890;13.714;2023-08-17T06:45:26;8.35;;;7.57;;
77158;SDS011;66129;45.890;13.714;2023-08-17T06:47:52;15.20;;;7.75;;
77158;SDS011;66129;45.890;13.714;2023-08-17T06:50:17;8.10;;;7.30;;
77158;SDS011;66129;45.890;13.714;2023-08-17T06:52:43;11.40;;;8.38;;
77158;SDS011;66129;45.890;13.714;2023-08-17T06:55:09;11.65;;;7.63;;
77158;SDS011;66129;45.890;13.714;2023-08-17T06:57:35;13.13;;;8.20;;
77158;SDS011;66129;45.890;13.714;2023-08-17T07:00:01;8.27;;;7.45;;
77158;SDS011;66129;45.890;13.714;2023-08-17T07:02:26;9.30;;;7.68;;
77158;SDS011;66129;45.890;13.714;2023-08-17T07:04:53;10.65;;;8.02;;
77158;SDS011;66129;45.890;13.714;2023-08-17T07:07:18;9.63;;;7.35;;
77158;SDS011;66129;45.890;13.714;2023-08-17T07:09:43;9.40;;;7.18;;
77158;SDS011;66129;45.890;13.714;2023-08-17T07:12:09;8.25;;;7.35;;
77158;SDS011;66129;45.890;13.714;2023-08-17T07:14:34;8.65;;;7.65;;
77158;SDS011;66129;45.890;13.714;2023-08-17T07:17:00;8.00;;;7.03;;
77158;SDS011;66129;45.890;13.714;2023-08-17T07:19:25;8.70;;;7.07;;
77158;SDS011;66129;45.890;13.714;2023-08-17T07:21:51;8.68;;;6.88;;
77158;SDS011;66129;45.890;13.714;2023-08-17T07:24:17;8.15;;;6.22;;
77158;SDS011;66129;45.890;13.714;2023-08-17T07:26:42;6.30;;;5.55;;
77158;SDS011;66129;45.890;13.714;2023-08-17T07:29:08;6.00;;;5.40;;
77158;SDS011;66129;45.890;13.714;2023-08-17T07:31:34;5.90;;;5.30;;
77158;SDS011;66129;45.890;13.714;2023-08-17T07:34:02;22.35;;;7.57;;
77158;SDS011;66129;45.890;13.714;2023-08-17T07:36:31;9.52;;;5.38;;
77158;SDS011;66129;45.890;13.714;2023-08-17T07:38:57;5.82;;;5.22;;
77158;SDS011;66129;45.890;13.714;2023-08-17T07:41:23;7.10;;;5.43;;
77158;SDS011;66129;45.890;13.714;2023-08-17T07:43:48;6.93;;;5.30;;
77158;SDS011;66129;45.890;13.714;2023-08-17T07:46:14;6.85;;;5.22;;
77158;SDS011;66129;45.890;13.714;2023-08-17T07:48:40;6.38;;;5.25;;
77158;SDS011;66129;45.890;13.714;2023-08-17T07:51:06;7.20;;;5.25;;
77158;SDS011;66129;45.890;13.714;2023-08-17T07:53:31;6.88;;;5.55;;
77158;SDS011;66129;45.890;13.714;2023-08-17T07:55:57;7.35;;;5.13;;
77158;SDS011;66129;45.890;13.714;2023-08-17T07:58:22;8.50;;;5.38;;
77158;SDS011;66129;45.890;13.714;2023-08-17T08:00:48;6.90;;;5.18;;
77158;SDS011;66129;45.890;13.714;2023-08-17T08:03:14;7.72;;;5.45;;
77158;SDS011;66129;45.890;13.714;2023-08-17T08:05:40;5.45;;;4.95;;
77158;SDS011;66129;45.890;13.714;2023-08-17T08:08:05;7.18;;;5.22;;
77158;SDS011;66129;45.890;13.714;2023-08-17T08:10:31;8.40;;;4.85;;
77158;SDS011;66129;45.890;13.714;2023-08-17T08:12:56;5.57;;;4.97;;
77158;SDS011;66129;45.890;13.714;2023-08-17T08:15:22;6.88;;;4.80;;
77158;SDS011;66129;45.890;13.714;2023-08-17T08:17:47;7.75;;;5.40;;
77158;SDS011;66129;45.890;13.714;2023-08-17T08:20:13;6.47;;;5.20;;
77158;SDS011;66129;45.890;13.714;2023-08-17T08:22:38;9.80;;;4.93;;
77158;SDS011;66129;45.890;13.714;2023-08-17T08:25:04;7.47;;;4.63;;
77158;SDS011;66129;45.890;13.714;2023-08-17T08:27:30;5.72;;;4.80;;
77158;SDS011;66129;45.890;13.714;2023-08-17T08:29:55;4.90;;;4.30;;
77158;SDS011;66129;45.890;13.714;2023-08-17T08:32:21;5.22;;;4.70;;
77158;SDS011;66129;45.890;13.714;2023-08-17T08:34:46;7.00;;;4.90;;
77158;SDS011;66129;45.890;13.714;2023-08-17T08:37:12;5.85;;;4.97;;
77158;SDS011;66129;45.890;13.714;2023-08-17T08:39:50;5.25;;;4.63;;
77158;SDS011;66129;45.890;13.714;2023-08-17T08:42:19;7.15;;;4.65;;
77158;SDS011;66129;45.890;13.714;2023-08-17T08:44:45;5.20;;;4.70;;
77158;SDS011;66129;45.890;13.714;2023-08-17T08:47:11;5.90;;;4.10;;
77158;SDS011;66129;45.890;13.714;2023-08-17T08:49:45;6.35;;;4.53;;
77158;SDS011;66129;45.890;13.714;2023-08-17T08:52:21;5.43;;;4.63;;
77158;SDS011;66129;45.890;13.714;2023-08-17T08:54:49;11.60;;;5.45;;
77158;SDS011;66129;45.890;13.714;2023-08-17T08:57:18;6.03;;;4.53;;
77158;SDS011;66129;45.890;13.714;2023-08-17T08:59:44;6.00;;;4.32;;
77158;SDS011;66129;45.890;13.714;2023-08-17T09:02:15;6.35;;;4.32;;
77158;SDS011;66129;45.890;13.714;2023-08-17T09:04:44;46.70;;;23.15;;
77158;SDS011;66129;45.890;13.714;2023-08-17T09:07:12;5.22;;;4.63;;
77158;SDS011;66129;45.890;13.714;2023-08-17T09:09:42;7.20;;;4.50;;
77158;SDS011;66129;45.890;13.714;2023-08-17T09:12:10;5.55;;;4.90;;
77158;SDS011;66129;45.890;13.714;2023-08-17T09:14:36;8.05;;;5.03;;
77158;SDS011;66129;45.890;13.714;2023-08-17T09:17:03;5.05;;;4.40;;
77158;SDS011;66129;45.890;13.714;2023-08-17T09:19:31;5.93;;;4.57;;
77158;SDS011;66129;45.890;13.714;2023-08-17T09:22:00;7.03;;;4.75;;
77158;SDS011;66129;45.890;13.714;2023-08-17T09:24:35;7.50;;;4.63;;
77158;SDS011;66129;45.890;13.714;2023-08-17T09:27:01;5.85;;;4.75;;
77158;SDS011;66129;45.890;13.714;2023-08-17T09:29:27;6.28;;;4.70;;
77158;SDS011;66129;45.890;13.714;2023-08-17T09:31:57;6.63;;;4.57;;
77158;SDS011;66129;45.890;13.714;2023-08-17T09:34:23;5.63;;;4.40;;
77158;SDS011;66129;45.890;13.714;2023-08-17T09:36:48;6.43;;;4.10;;
77158;SDS011;66129;45.890;13.714;2023-08-17T09:39:16;4.65;;;4.15;;
77158;SDS011;66129;45.890;13.714;2023-08-17T09:41:43;5.72;;;4.43;;
77158;SDS011;66129;45.890;13.714;2023-08-17T09:44:09;5.47;;;4.15;;
77158;SDS011;66129;45.890;13.714;2023-08-17T09:46:36;5.28;;;4.78;;
77158;SDS011;66129;45.890;13.714;2023-08-17T09:49:02;5.18;;;4.68;;
77158;SDS011;66129;45.890;13.714;2023-08-17T09:51:31;6.63;;;4.82;;
77158;SDS011;66129;45.890;13.714;2023-08-17T09:53:56;10.45;;;5.45;;
77158;SDS011;66129;45.890;13.714;2023-08-17T09:56:22;5.60;;;4.82;;
77158;SDS011;66129;45.890;13.714;2023-08-17T09:58:49;6.35;;;5.75;;
77158;SDS011;66129;45.890;13.714;2023-08-17T10:01:15;4.85;;;4.38;;
77158;SDS011;66129;45.890;13.714;2023-08-17T10:03:42;5.75;;;4.13;;
77158;SDS011;66129;45.890;13.714;2023-08-17T10:06:12;7.10;;;4.65;;
77158;SDS011;66129;45.890;13.714;2023-08-17T10:08:42;5.32;;;4.18;;
77158;SDS011;66129;45.890;13.714;2023-08-17T10:11:08;6.40;;;4.78;;
77158;SDS011;66129;45.890;13.714;2023-08-17T10:13:35;4.85;;;4.18;;
77158;SDS011;66129;45.890;13.714;2023-08-17T10:18:54;7.68;;;4.65;;
77158;SDS011;66129;45.890;13.714;2023-08-17T10:21:29;6.35;;;5.10;;
77158;SDS011;66129;45.890;13.714;2023-08-17T10:24:01;5.07;;;4.32;;
77158;SDS011;66129;45.890;13.714;2023-08-17T10:26:28;8.07;;;4.43;;
77158;SDS011;66129;45.890;13.714;2023-08-17T10:28:54;5.18;;;4.63;;
77158;SDS011;66129;45.890;13.714;2023-08-17T10:31:23;5.53;;;4.35;;
77158;SDS011;66129;45.890;13.714;2023-08-17T10:33:50;5.18;;;4.57;;
77158;SDS011;66129;45.890;13.714;2023-08-17T10:36:16;7.25;;;4.82;;
77158;SDS011;66129;45.890;13.714;2023-08-17T10:38:42;5.70;;;4.38;;
77158;SDS011;66129;45.890;13.714;2023-08-17T10:41:08;8.10;;;5.03;;
77158;SDS011;66129;45.890;13.714;2023-08-17T10:43:52;5.78;;;4.88;;
77158;SDS011;66129;45.890;13.714;2023-08-17T10:46:19;5.70;;;4.32;;
77158;SDS011;66129;45.890;13.714;2023-08-17T10:48:45;6.93;;;4.70;;
77158;SDS011;66129;45.890;13.714;2023-08-17T10:51:10;5.03;;;4.53;;
77158;SDS011;66129;45.890;13.714;2023-08-17T10:53:40;5.55;;;4.05;;
77158;SDS011;66129;45.890;13.714;2023-08-17T10:56:12;5.05;;;4.55;;
77158;SDS011;66129;45.890;13.714;2023-08-17T10:58:39;5.75;;;4.75;;
77158;SDS011;66129;45.890;13.714;2023-08-17T11:01:06;9.02;;;4.90;;
77158;SDS011;66129;45.890;13.714;2023-08-17T11:03:32;8.98;;;4.13;;
77158;SDS011;66129;45.890;13.714;2023-08-17T11:05:58;5.25;;;4.60;;
77158;SDS011;66129;45.890;13.714;2023-08-17T11:08:40;9.20;;;4.53;;
77158;SDS011;66129;45.890;13.714;2023-08-17T11:11:16;6.30;;;4.50;;
77158;SDS011;66129;45.890;13.714;2023-08-17T11:13:45;4.10;;;3.70;;
77158;SDS011;66129;45.890;13.714;2023-08-17T11:16:15;5.35;;;4.82;;
77158;SDS011;66129;45.890;13.714;2023-08-17T11:18:42;6.47;;;4.60;;
77158;SDS011;66129;45.890;13.714;2023-08-17T11:21:09;5.15;;;4.53;;
77158;SDS011;66129;45.890;13.714;2023-08-17T11:23:35;6.07;;;4.70;;
77158;SDS011;66129;45.890;13.714;2023-08-17T11:26:02;5.47;;;4.60;;
77158;SDS011;66129;45.890;13.714;2023-08-17T11:28:31;5.07;;;4.50;;
77158;SDS011;66129;45.890;13.714;2023-08-17T11:31:04;5.82;;;4.72;;
77158;SDS011;66129;45.890;13.714;2023-08-17T11:33:32;5.28;;;4.10;;
77158;SDS011;66129;45.890;13.714;2023-08-17T11:35:59;5.70;;;4.65;;
77158;SDS011;66129;45.890;13.714;2023-08-17T11:38:26;5.97;;;4.85;;
77158;SDS011;66129;45.890;13.714;2023-08-17T11:40:55;5.30;;;4.50;;
77158;SDS011;66129;45.890;13.714;2023-08-17T11:43:22;5.35;;;4.82;;
77158;SDS011;66129;45.890;13.714;2023-08-17T11:45:48;6.00;;;4.53;;
77158;SDS011;66129;45.890;13.714;2023-08-17T11:48:14;5.35;;;4.82;;
77158;SDS011;66129;45.890;13.714;2023-08-17T11:50:42;6.38;;;5.03;;
77158;SDS011;66129;45.890;13.714;2023-08-17T11:53:07;5.63;;;4.47;;
77158;SDS011;66129;45.890;13.714;2023-08-17T11:55:33;6.25;;;4.65;;
77158;SDS011;66129;45.890;13.714;2023-08-17T11:57:58;7.78;;;4.80;;
77158;SDS011;66129;45.890;13.714;2023-08-17T12:00:24;5.88;;;4.57;;
77158;SDS011;66129;45.890;13.714;2023-08-17T12:02:51;6.55;;;5.05;;
77158;SDS011;66129;45.890;13.714;2023-08-17T12:05:24;5.13;;;4.63;;
77158;SDS011;66129;45.890;13.714;2023-08-17T12:07:55;5.65;;;4.40;;
77158;SDS011;66129;45.890;13.714;2023-08-17T12:10:21;5.03;;;4.53;;
77158;SDS011;66129;45.890;13.714;2023-08-17T12:12:49;5.63;;;4.65;;
77158;SDS011;66129;45.890;13.714;2023-08-17T12:15:15;6.65;;;4.78;;
77158;SDS011;66129;45.890;13.714;2023-08-17T12:17:45;5.93;;;4.65;;
77158;SDS011;66129;45.890;13.714;2023-08-17T12:20:15;5.20;;;4.70;;
77158;SDS011;66129;45.890;13.714;2023-08-17T12:22:45;6.85;;;4.50;;
77158;SDS011;66129;45.890;13.714;2023-08-17T12:25:11;6.68;;;4.95;;
77158;SDS011;66129;45.890;13.714;2023-08-17T12:27:38;6.75;;;5.32;;
77158;SDS011;66129;45.890;13.714;2023-08-17T12:30:04;6.20;;;4.82;;
77158;SDS011;66129;45.890;13.714;2023-08-17T12:32:31;5.78;;;4.88;;
77158;SDS011;66129;45.890;13.714;2023-08-17T12:34:56;5.65;;;4.90;;
77158;SDS011;66129;45.890;13.714;2023-08-17T12:37:22;5.30;;;4.72;;
77158;SDS011;66129;45.890;13.714;2023-08-17T12:39:47;8.25;;;5.53;;
77158;SDS011;66129;45.890;13.714;2023-08-17T12:42:13;5.75;;;5.15;;
77158;SDS011;66129;45.890;13.714;2023-08-17T12:44:40;5.60;;;4.90;;
77158;SDS011;66129;45.890;13.714;2023-08-17T12:47:06;7.22;;;5.18;;
77158;SDS011;66129;45.890;13.714;2023-08-17T12:49:31;9.65;;;5.95;;
77158;SDS011;66129;45.890;13.714;2023-08-17T12:51:57;5.82;;;5.22;;
77158;SDS011;66129;45.890;13.714;2023-08-17T12:54:22;9.60;;;5.93;;
77158;SDS011;66129;45.890;13.714;2023-08-17T12:56:48;6.70;;;5.05;;
77158;SDS011;66129;45.890;13.714;2023-08-17T12:59:13;6.18;;;5.57;;
77158;SDS011;66129;45.890;13.714;2023-08-17T13:01:39;8.20;;;5.38;;
77158;SDS011;66129;45.890;13.714;2023-08-17T13:04:05;7.13;;;5.65;;
77158;SDS011;66129;45.890;13.714;2023-08-17T13:06:31;6.55;;;4.95;;
77158;SDS011;66129;45.890;13.714;2023-08-17T13:08:56;6.45;;;5.25;;
77158;SDS011;66129;45.890;13.714;2023-08-17T13:11:22;7.80;;;5.53;;
77158;SDS011;66129;45.890;13.714;2023-08-17T13:13:47;5.80;;;5.22;;
77158;SDS011;66129;45.890;13.714;2023-08-17T13:16:13;6.72;;;5.43;;
77158;SDS011;66129;45.890;13.714;2023-08-17T13:18:38;7.32;;;5.50;;
77158;SDS011;66129;45.890;13.714;2023-08-17T13:21:04;5.45;;;4.93;;
77158;SDS011;66129;45.890;13.714;2023-08-17T13:23:30;6.70;;;4.82;;
77158;SDS011;66129;45.890;13.714;2023-08-17T13:25:55;6.82;;;5.32;;
77158;SDS011;66129;45.890;13.714;2023-08-17T13:28:21;7.45;;;4.97;;
77158;SDS011;66129;45.890;13.714;2023-08-17T13:30:46;7.88;;;5.47;;
77158;SDS011;66129;45.890;13.714;2023-08-17T13:33:12;6.28;;;4.90;;
77158;SDS011;66129;45.890;13.714;2023-08-17T13:35:37;6.28;;;5.30;;
77158;SDS011;66129;45.890;13.714;2023-08-17T13:38:03;6.05;;;5.05;;
77158;SDS011;66129;45.890;13.714;2023-08-17T13:40:30;5.60;;;4.82;;
77158;SDS011;66129;45.890;13.714;2023-08-17T13:42:56;7.07;;;5.30;;
77158;SDS011;66129;45.890;13.714;2023-08-17T13:45:23;7.38;;;5.32;;
77158;SDS011;66129;45.890;13.714;2023-08-17T13:47:49;5.00;;;4.50;;
77158;SDS011;66129;45.890;13.714;2023-08-17T13:50:14;6.20;;;5.60;;
77158;SDS011;66129;45.890;13.714;2023-08-17T13:52:40;5.20;;;4.70;;
77158;SDS011;66129;45.890;13.714;2023-08-17T13:55:06;5.78;;;4.97;;
77158;SDS011;66129;45.890;13.714;2023-08-17T13:57:31;7.70;;;4.80;;
77158;SDS011;66129;45.890;13.714;2023-08-17T13:59:57;7.75;;;5.18;;
77158;SDS011;66129;45.890;13.714;2023-08-17T14:02:22;5.45;;;4.47;;
77158;SDS011;66129;45.890;13.714;2023-08-17T14:04:48;7.15;;;5.05;;
77158;SDS011;66129;45.890;13.714;2023-08-17T14:07:13;6.05;;;5.05;;
77158;SDS011;66129;45.890;13.714;2023-08-17T14:09:39;6.78;;;4.95;;
77158;SDS011;66129;45.890;13.714;2023-08-17T14:12:04;8.18;;;5.32;;
77158;SDS011;66129;45.890;13.714;2023-08-17T14:14:30;7.45;;;5.15;;
77158;SDS011;66129;45.890;13.714;2023-08-17T14:16:56;5.03;;;4.45;;
77158;SDS011;66129;45.890;13.714;2023-08-17T14:19:22;6.57;;;5.28;;
77158;SDS011;66129;45.890;13.714;2023-08-17T14:21:48;5.68;;;4.93;;
77158;SDS011;66129;45.890;13.714;2023-08-17T14:24:13;7.93;;;4.97;;
77158;SDS011;66129;45.890;13.714;2023-08-17T14:26:39;5.68;;;4.72;;